Aérodrome :
LOGIN :

S'inscrire | Disclaimer

   EN    FR    IT 

 










Légende :    VFR   VFR Marginal   IFR   IFR Intensif   IFR Très Intensif
Visi : 
Plafond : 
>= 8 km
>= 3000ft
5 à 8 km
1000 à 3000 ft
1500m à 5 km
500 à 1000 ft
800 à 1500m
200 à 500 ft
< 800m
< 200 ft
Symboles :   Orages  Brouillard  Fortes neiges  Fortes précipitations  Vent > 20 kt
SIGMETs :   Divers  Orages  Givrage  Turbulence  Onde Orograph.  Cendres Volcan.







- Altitude de l'aérodrome : 56 ft


LPOV - Ovar Air Base

DERNIER METAR :
  • 181600Z 01007KT 9999 SCT018 BKN028 13/08 Q1018

METARs EXPIRÉS :
  • 181500Z 35010KT 9999 SCT018 BKN028 13/08 Q1018
  • 181400Z 35010KT 9999 SCT018 BKN028 13/09 Q1018

TAF TAF LPOV
Valide du 18 à 12h jusqu'au 19 à 12h UTC


181105Z 1812/1912 35010KT 9999 FEW015 SCT025
PROB40
TEMPO 1812/1816 36012G22KT 7000 -SHRA SCT012 BKN020
BECMG 1814/1816 FEW025
BECMG 1822/1824 04005KT
Pas de NOTAMs connus pour ce terrain.
1 SIGMET publié pour la FIR Lisboa (LPPC) :
 
Turbulence forte
LPPC SIGMET 4 VALID 181500/181800 LPPT
LPPC LISBON FIR SEV TURB FCST WI N3700 W01315 - N4115 W01145 - N4030 W00900 - N3715 W01030 - N3700 W01315 FL200/320 MOV SW 10KT WKN=



MET'MAP, la Météo Aéronautique d'un coup d'oeil ! - Copyright ORBIFLY Décembre 2007 - Disclaimer

ORBIFLY MET'MAP TEAM :

Programmation & Développement : Alexandra Zaïnal
Conception & Développement : Baudouin d'Aumeries
Co-Programmation & Développement : Marc-Olivier Méhu
Soutien technique & logistique : Manuel Goepfert

Contact : metmap@orbifly.com




SOURCES & CREDITS :

   NOAA